sensor_id;sensor_type;location;lat;lon;timestamp;temperature;humidity
41756;DHT22;27435;48.480;9.258;2023-02-15T00:01:37;0.20;99.00
41756;DHT22;27435;48.480;9.258;2023-02-15T00:04:04;0.30;99.00
41756;DHT22;27435;48.480;9.258;2023-02-15T00:06:30;0.30;99.00
41756;DHT22;27435;48.480;9.258;2023-02-15T00:08:56;0.20;99.00
41756;DHT22;27435;48.480;9.258;2023-02-15T00:11:22;0.30;99.00
41756;DHT22;27435;48.480;9.258;2023-02-15T00:14:11;0.40;99.00
41756;DHT22;27435;48.480;9.258;2023-02-15T00:16:38;0.40;99.00
41756;DHT22;27435;48.480;9.258;2023-02-15T00:19:05;0.30;99.00
41756;DHT22;27435;48.480;9.258;2023-02-15T00:21:32;0.10;99.00
41756;DHT22;27435;48.480;9.258;2023-02-15T00:23:59;0.10;99.00
41756;DHT22;27435;48.480;9.258;2023-02-15T00:26:25;0.00;99.00
41756;DHT22;27435;48.480;9.258;2023-02-15T00:28:52;0.00;99.00
41756;DHT22;27435;48.480;9.258;2023-02-15T00:31:17;0.00;99.00
41756;DHT22;27435;48.480;9.258;2023-02-15T00:33:43;0.00;99.00
41756;DHT22;27435;48.480;9.258;2023-02-15T00:36:09;-0.10;99.00
41756;DHT22;27435;48.480;9.258;2023-02-15T00:38:36;-0.10;99.00
41756;DHT22;27435;48.480;9.258;2023-02-15T00:41:04;-0.10;99.00
41756;DHT22;27435;48.480;9.258;2023-02-15T00:43:31;-0.10;99.00
41756;DHT22;27435;48.480;9.258;2023-02-15T00:45:57;-0.10;99.00
41756;DHT22;27435;48.480;9.258;2023-02-15T00:48:23;-0.10;99.00
41756;DHT22;27435;48.480;9.258;2023-02-15T00:50:51;-0.10;99.00
41756;DHT22;27435;48.480;9.258;2023-02-15T00:53:17;-0.10;99.00
41756;DHT22;27435;48.480;9.258;2023-02-15T00:55:42;0.00;99.00
41756;DHT22;27435;48.480;9.258;2023-02-15T00:58:09;0.00;99.00
41756;DHT22;27435;48.480;9.258;2023-02-15T01:00:35;0.10;99.00
41756;DHT22;27435;48.480;9.258;2023-02-15T01:03:01;0.10;99.00
41756;DHT22;27435;48.480;9.258;2023-02-15T01:05:26;0.20;99.00
41756;DHT22;27435;48.480;9.258;2023-02-15T01:07:52;0.10;99.00
41756;DHT22;27435;48.480;9.258;2023-02-15T01:10:18;0.00;99.00
41756;DHT22;27435;48.480;9.258;2023-02-15T01:12:43;-0.10;99.00
41756;DHT22;27435;48.480;9.258;2023-02-15T01:15:09;-0.20;99.00
41756;DHT22;27435;48.480;9.258;2023-02-15T01:17:35;-0.10;99.00
41756;DHT22;27435;48.480;9.258;2023-02-15T01:20:01;0.00;99.00
41756;DHT22;27435;48.480;9.258;2023-02-15T01:22:26;0.00;99.00
41756;DHT22;27435;48.480;9.258;2023-02-15T01:24:52;0.10;99.00
41756;DHT22;27435;48.480;9.258;2023-02-15T01:27:18;0.10;99.00
41756;DHT22;27435;48.480;9.258;2023-02-15T01:29:44;0.10;99.00
41756;DHT22;27435;48.480;9.258;2023-02-15T01:32:09;0.10;99.00
41756;DHT22;27435;48.480;9.258;2023-02-15T01:34:35;0.10;99.00
41756;DHT22;27435;48.480;9.258;2023-02-15T01:37:01;0.00;99.00
41756;DHT22;27435;48.480;9.258;2023-02-15T01:39:26;0.00;99.00
41756;DHT22;27435;48.480;9.258;2023-02-15T01:41:52;0.00;99.00
41756;DHT22;27435;48.480;9.258;2023-02-15T01:47:10;-0.10;99.00
41756;DHT22;27435;48.480;9.258;2023-02-15T01:49:38;-0.20;99.00
41756;DHT22;27435;48.480;9.258;2023-02-15T01:52:07;-0.30;99.00
41756;DHT22;27435;48.480;9.258;2023-02-15T01:54:34;-0.40;99.00
41756;DHT22;27435;48.480;9.258;2023-02-15T01:57:14;-0.30;99.00
41756;DHT22;27435;48.480;9.258;2023-02-15T01:59:42;-0.40;99.00
41756;DHT22;27435;48.480;9.258;2023-02-15T02:02:09;-0.40;99.00
41756;DHT22;27435;48.480;9.258;2023-02-15T02:04:48;-0.50;99.00
41756;DHT22;27435;48.480;9.258;2023-02-15T02:07:16;-0.50;99.00
41756;DHT22;27435;48.480;9.258;2023-02-15T02:09:44;-0.50;99.00
41756;DHT22;27435;48.480;9.258;2023-02-15T02:12:10;-0.50;99.00
41756;DHT22;27435;48.480;9.258;2023-02-15T02:14:37;-0.60;99.00
41756;DHT22;27435;48.480;9.258;2023-02-15T02:36:02;-1.00;99.00
41756;DHT22;27435;48.480;9.258;2023-02-15T02:49:06;-0.80;99.00
41756;DHT22;27435;48.480;9.258;2023-02-15T02:51:32;-0.90;99.00
41756;DHT22;27435;48.480;9.258;2023-02-15T02:54:00;-0.70;99.00
41756;DHT22;27435;48.480;9.258;2023-02-15T02:59:19;-0.70;99.00
41756;DHT22;27435;48.480;9.258;2023-02-15T03:01:51;-0.80;99.00
41756;DHT22;27435;48.480;9.258;2023-02-15T03:04:22;-0.90;99.00
41756;DHT22;27435;48.480;9.258;2023-02-15T03:07:12;-1.00;99.00
41756;DHT22;27435;48.480;9.258;2023-02-15T03:09:42;-1.20;99.00
41756;DHT22;27435;48.480;9.258;2023-02-15T03:12:14;-1.20;99.00
41756;DHT22;27435;48.480;9.258;2023-02-15T03:14:44;-1.10;99.00
41756;DHT22;27435;48.480;9.258;2023-02-15T03:17:12;-1.10;99.00
41756;DHT22;27435;48.480;9.258;2023-02-15T03:19:44;-1.20;99.00
41756;DHT22;27435;48.480;9.258;2023-02-15T03:22:26;-1.20;99.00
41756;DHT22;27435;48.480;9.258;2023-02-15T03:24:56;-1.30;99.00
41756;DHT22;27435;48.480;9.258;2023-02-15T03:27:27;-1.30;99.00
41756;DHT22;27435;48.480;9.258;2023-02-15T03:29:58;-1.30;99.00
41756;DHT22;27435;48.480;9.258;2023-02-15T03:32:26;-1.20;99.00
41756;DHT22;27435;48.480;9.258;2023-02-15T03:34:54;-1.20;99.00
41756;DHT22;27435;48.480;9.258;2023-02-15T03:37:41;-1.30;99.00
41756;DHT22;27435;48.480;9.258;2023-02-15T03:40:15;-1.50;99.00
41756;DHT22;27435;48.480;9.258;2023-02-15T03:43:17;-1.60;99.00
41756;DHT22;27435;48.480;9.258;2023-02-15T03:45:48;-1.40;99.00
41756;DHT22;27435;48.480;9.258;2023-02-15T03:48:33;-1.40;99.00
41756;DHT22;27435;48.480;9.258;2023-02-15T03:51:08;-1.30;99.00
41756;DHT22;27435;48.480;9.258;2023-02-15T03:53:54;-1.30;99.00
41756;DHT22;27435;48.480;9.258;2023-02-15T03:56:21;-1.40;99.00
41756;DHT22;27435;48.480;9.258;2023-02-15T03:58:47;-1.50;99.00
41756;DHT22;27435;48.480;9.258;2023-02-15T04:01:37;-1.50;99.00
41756;DHT22;27435;48.480;9.258;2023-02-15T04:04:33;-1.40;99.00
41756;DHT22;27435;48.480;9.258;2023-02-15T04:07:00;-1.50;99.00
41756;DHT22;27435;48.480;9.258;2023-02-15T04:09:26;-1.40;99.00
41756;DHT22;27435;48.480;9.258;2023-02-15T04:12:10;-1.30;99.00
41756;DHT22;27435;48.480;9.258;2023-02-15T04:14:36;-1.10;99.00
41756;DHT22;27435;48.480;9.258;2023-02-15T04:17:20;-1.00;99.00
41756;DHT22;27435;48.480;9.258;2023-02-15T04:19:46;-1.20;99.00
41756;DHT22;27435;48.480;9.258;2023-02-15T04:22:30;-1.30;99.00
41756;DHT22;27435;48.480;9.258;2023-02-15T04:25:15;-1.60;99.00
41756;DHT22;27435;48.480;9.258;2023-02-15T04:27:43;-1.60;99.00
41756;DHT22;27435;48.480;9.258;2023-02-15T04:30:10;-1.60;99.00
41756;DHT22;27435;48.480;9.258;2023-02-15T04:32:36;-1.50;99.00
41756;DHT22;27435;48.480;9.258;2023-02-15T04:35:02;-1.50;99.00
41756;DHT22;27435;48.480;9.258;2023-02-15T04:37:28;-1.60;99.00
41756;DHT22;27435;48.480;9.258;2023-02-15T04:39:54;-1.60;99.00
41756;DHT22;27435;48.480;9.258;2023-02-15T04:42:19;-1.60;99.00
41756;DHT22;27435;48.480;9.258;2023-02-15T04:44:45;-1.70;99.00
41756;DHT22;27435;48.480;9.258;2023-02-15T04:47:10;-1.70;99.00
41756;DHT22;27435;48.480;9.258;2023-02-15T04:49:36;-1.70;99.00
41756;DHT22;27435;48.480;9.258;2023-02-15T04:52:02;-1.70;99.00
41756;DHT22;27435;48.480;9.258;2023-02-15T04:54:27;-1.70;99.00
41756;DHT22;27435;48.480;9.258;2023-02-15T04:56:53;-1.70;99.00
41756;DHT22;27435;48.480;9.258;2023-02-15T04:59:19;-1.90;99.00
41756;DHT22;27435;48.480;9.258;2023-02-15T05:01:44;-1.90;99.00
41756;DHT22;27435;48.480;9.258;2023-02-15T05:04:10;-1.80;99.00
41756;DHT22;27435;48.480;9.258;2023-02-15T05:06:35;-1.90;99.00
41756;DHT22;27435;48.480;9.258;2023-02-15T05:09:02;-1.80;99.00
41756;DHT22;27435;48.480;9.258;2023-02-15T05:11:27;-1.70;99.00
41756;DHT22;27435;48.480;9.258;2023-02-15T05:13:53;-1.80;99.00
41756;DHT22;27435;48.480;9.258;2023-02-15T05:16:19;-1.70;99.00
41756;DHT22;27435;48.480;9.258;2023-02-15T05:18:44;-1.70;99.00
41756;DHT22;27435;48.480;9.258;2023-02-15T05:21:10;-1.60;99.00
41756;DHT22;27435;48.480;9.258;2023-02-15T05:23:36;-1.50;99.00
41756;DHT22;27435;48.480;9.258;2023-02-15T05:26:03;-1.40;99.00
41756;DHT22;27435;48.480;9.258;2023-02-15T05:28:47;-1.50;99.00
41756;DHT22;27435;48.480;9.258;2023-02-15T05:31:15;-1.40;99.00
41756;DHT22;27435;48.480;9.258;2023-02-15T05:33:42;-1.40;99.00
41756;DHT22;27435;48.480;9.258;2023-02-15T05:36:08;-1.30;99.00
41756;DHT22;27435;48.480;9.258;2023-02-15T05:38:34;-1.30;99.00
41756;DHT22;27435;48.480;9.258;2023-02-15T05:41:03;-1.60;99.00
41756;DHT22;27435;48.480;9.258;2023-02-15T05:43:30;-1.80;99.00
41756;DHT22;27435;48.480;9.258;2023-02-15T05:45:56;-1.90;99.00
41756;DHT22;27435;48.480;9.258;2023-02-15T05:48:24;-1.90;99.00
41756;DHT22;27435;48.480;9.258;2023-02-15T05:53:30;-2.20;99.00
41756;DHT22;27435;48.480;9.258;2023-02-15T05:55:56;-2.20;99.00
41756;DHT22;27435;48.480;9.258;2023-02-15T05:58:28;-2.20;99.00
41756;DHT22;27435;48.480;9.258;2023-02-15T06:00:53;-2.20;99.00
41756;DHT22;27435;48.480;9.258;2023-02-15T06:03:19;-2.10;99.00
41756;DHT22;27435;48.480;9.258;2023-02-15T06:05:45;-2.20;99.00
41756;DHT22;27435;48.480;9.258;2023-02-15T06:08:10;-2.30;99.00
41756;DHT22;27435;48.480;9.258;2023-02-15T06:10:36;-2.40;99.00
41756;DHT22;27435;48.480;9.258;2023-02-15T06:13:01;-2.50;99.00
41756;DHT22;27435;48.480;9.258;2023-02-15T06:15:27;-2.50;99.00
41756;DHT22;27435;48.480;9.258;2023-02-15T06:17:53;-2.40;99.00
41756;DHT22;27435;48.480;9.258;2023-02-15T06:20:18;-2.30;99.00
41756;DHT22;27435;48.480;9.258;2023-02-15T06:22:44;-2.30;99.00
41756;DHT22;27435;48.480;9.258;2023-02-15T06:25:10;-2.20;99.00
41756;DHT22;27435;48.480;9.258;2023-02-15T06:27:37;-2.30;99.00
41756;DHT22;27435;48.480;9.258;2023-02-15T06:30:05;-2.30;99.00
41756;DHT22;27435;48.480;9.258;2023-02-15T06:32:31;-2.30;99.00
41756;DHT22;27435;48.480;9.258;2023-02-15T06:34:57;-2.40;99.00
41756;DHT22;27435;48.480;9.258;2023-02-15T06:37:23;-2.40;99.00
41756;DHT22;27435;48.480;9.258;2023-02-15T06:39:48;-2.30;99.00
41756;DHT22;27435;48.480;9.258;2023-02-15T06:42:14;-2.20;99.00
41756;DHT22;27435;48.480;9.258;2023-02-15T06:44:39;-2.20;99.00
41756;DHT22;27435;48.480;9.258;2023-02-15T06:47:05;-2.30;99.00
41756;DHT22;27435;48.480;9.258;2023-02-15T06:49:31;-2.40;99.00
41756;DHT22;27435;48.480;9.258;2023-02-15T06:51:56;-2.20;99.00
41756;DHT22;27435;48.480;9.258;2023-02-15T06:54:22;-2.00;99.00
41756;DHT22;27435;48.480;9.258;2023-02-15T06:56:47;-1.90;99.00
41756;DHT22;27435;48.480;9.258;2023-02-15T06:59:13;-1.70;99.00
41756;DHT22;27435;48.480;9.258;2023-02-15T07:01:38;-1.70;99.00
41756;DHT22;27435;48.480;9.258;2023-02-15T07:04:04;-1.70;99.00
41756;DHT22;27435;48.480;9.258;2023-02-15T07:06:33;-1.70;99.00
41756;DHT22;27435;48.480;9.258;2023-02-15T07:08:59;-1.70;99.00
41756;DHT22;27435;48.480;9.258;2023-02-15T07:11:26;-1.70;99.00
41756;DHT22;27435;48.480;9.258;2023-02-15T07:14:10;-1.80;99.00
41756;DHT22;27435;48.480;9.258;2023-02-15T07:16:35;-1.70;99.00
41756;DHT22;27435;48.480;9.258;2023-02-15T07:19:01;-1.60;99.00
41756;DHT22;27435;48.480;9.258;2023-02-15T07:21:27;-1.50;99.00
41756;DHT22;27435;48.480;9.258;2023-02-15T07:23:56;-1.50;99.00
41756;DHT22;27435;48.480;9.258;2023-02-15T07:26:21;-1.70;99.00
41756;DHT22;27435;48.480;9.258;2023-02-15T07:28:47;-1.70;99.00
41756;DHT22;27435;48.480;9.258;2023-02-15T07:31:13;-1.60;99.00
41756;DHT22;27435;48.480;9.258;2023-02-15T07:33:39;-1.50;99.00
41756;DHT22;27435;48.480;9.258;2023-02-15T07:36:04;-1.40;99.00
41756;DHT22;27435;48.480;9.258;2023-02-15T07:38:35;-1.40;99.00
41756;DHT22;27435;48.480;9.258;2023-02-15T07:41:03;-1.50;99.00
41756;DHT22;27435;48.480;9.258;2023-02-15T07:43:30;-1.50;99.00
41756;DHT22;27435;48.480;9.258;2023-02-15T07:46:03;-1.40;99.00
41756;DHT22;27435;48.480;9.258;2023-02-15T07:48:29;-1.20;99.00
41756;DHT22;27435;48.480;9.258;2023-02-15T07:50:59;-1.10;99.00
41756;DHT22;27435;48.480;9.258;2023-02-15T07:53:25;-1.00;99.00
41756;DHT22;27435;48.480;9.258;2023-02-15T07:55:50;-0.80;99.00
41756;DHT22;27435;48.480;9.258;2023-02-15T07:58:18;-0.70;99.00
41756;DHT22;27435;48.480;9.258;2023-02-15T08:00:43;-0.60;99.00
41756;DHT22;27435;48.480;9.258;2023-02-15T08:03:27;-0.50;99.00
41756;DHT22;27435;48.480;9.258;2023-02-15T08:05:58;-0.40;99.00
41756;DHT22;27435;48.480;9.258;2023-02-15T08:08:25;-0.40;99.00
41756;DHT22;27435;48.480;9.258;2023-02-15T08:13:53;-0.20;99.00
41756;DHT22;27435;48.480;9.258;2023-02-15T08:16:27;0.00;99.00
41756;DHT22;27435;48.480;9.258;2023-02-15T08:18:54;0.00;99.00
41756;DHT22;27435;48.480;9.258;2023-02-15T08:21:20;0.30;99.00
41756;DHT22;27435;48.480;9.258;2023-02-15T08:23:46;0.30;99.00
41756;DHT22;27435;48.480;9.258;2023-02-15T08:26:12;0.40;99.00
41756;DHT22;27435;48.480;9.258;2023-02-15T08:28:38;0.50;99.00
41756;DHT22;27435;48.480;9.258;2023-02-15T08:31:08;0.60;99.00
41756;DHT22;27435;48.480;9.258;2023-02-15T08:33:35;0.70;99.00
41756;DHT22;27435;48.480;9.258;2023-02-15T08:36:13;0.90;99.00
41756;DHT22;27435;48.480;9.258;2023-02-15T08:38:40;1.20;99.00
41756;DHT22;27435;48.480;9.258;2023-02-15T08:43:38;1.60;99.00
41756;DHT22;27435;48.480;9.258;2023-02-15T08:46:05;1.60;99.00
41756;DHT22;27435;48.480;9.258;2023-02-15T08:48:31;1.60;99.00
41756;DHT22;27435;48.480;9.258;2023-02-15T08:50:57;1.60;99.00
41756;DHT22;27435;48.480;9.258;2023-02-15T08:53:22;1.60;99.00
41756;DHT22;27435;48.480;9.258;2023-02-15T08:55:58;1.70;99.00
41756;DHT22;27435;48.480;9.258;2023-02-15T08:58:24;1.80;99.00
41756;DHT22;27435;48.480;9.258;2023-02-15T09:14:34;2.30;99.00
41756;DHT22;27435;48.480;9.258;2023-02-15T09:16:59;3.40;99.00
41756;DHT22;27435;48.480;9.258;2023-02-15T09:19:26;3.50;99.00
41756;DHT22;27435;48.480;9.258;2023-02-15T09:21:51;3.70;99.00
41756;DHT22;27435;48.480;9.258;2023-02-15T09:24:18;3.80;99.00
41756;DHT22;27435;48.480;9.258;2023-02-15T09:26:45;4.00;99.00
41756;DHT22;27435;48.480;9.258;2023-02-15T09:29:13;4.20;99.00
41756;DHT22;27435;48.480;9.258;2023-02-15T09:31:44;4.20;99.00
41756;DHT22;27435;48.480;9.258;2023-02-15T09:34:11;4.40;99.00
41756;DHT22;27435;48.480;9.258;2023-02-15T09:36:38;4.60;99.00
41756;DHT22;27435;48.480;9.258;2023-02-15T09:53:24;5.60;99.00
41756;DHT22;27435;48.480;9.258;2023-02-15T10:03:59;6.10;99.00
41756;DHT22;27435;48.480;9.258;2023-02-15T10:17:07;6.50;96.80
41756;DHT22;27435;48.480;9.258;2023-02-15T10:28:25;7.00;94.90
41756;DHT22;27435;48.480;9.258;2023-02-15T10:30:57;7.10;95.30
41756;DHT22;27435;48.480;9.258;2023-02-15T10:33:39;7.10;94.20
41756;DHT22;27435;48.480;9.258;2023-02-15T10:39:02;7.50;91.20
41756;DHT22;27435;48.480;9.258;2023-02-15T10:41:51;7.50;92.30
41756;DHT22;27435;48.480;9.258;2023-02-15T10:52:55;7.90;90.50
41756;DHT22;27435;48.480;9.258;2023-02-15T10:55:27;7.90;89.90
41756;DHT22;27435;48.480;9.258;2023-02-15T10:58:47;8.10;89.00
41756;DHT22;27435;48.480;9.258;2023-02-15T11:01:40;8.20;88.30
41756;DHT22;27435;48.480;9.258;2023-02-15T11:07:04;8.40;86.50
41756;DHT22;27435;48.480;9.258;2023-02-15T11:10:01;8.50;85.30
41756;DHT22;27435;48.480;9.258;2023-02-15T11:12:31;8.60;86.30
41756;DHT22;27435;48.480;9.258;2023-02-15T11:17:39;8.80;84.80
41756;DHT22;27435;48.480;9.258;2023-02-15T11:20:27;8.80;84.40
41756;DHT22;27435;48.480;9.258;2023-02-15T11:22:54;8.90;83.50
41756;DHT22;27435;48.480;9.258;2023-02-15T11:25:30;9.00;83.60
41756;DHT22;27435;48.480;9.258;2023-02-15T11:27:56;9.10;82.80
41756;DHT22;27435;48.480;9.258;2023-02-15T11:30:24;9.20;83.10
41756;DHT22;27435;48.480;9.258;2023-02-15T11:32:56;9.30;82.70
41756;DHT22;27435;48.480;9.258;2023-02-15T11:35:32;9.40;82.00
41756;DHT22;27435;48.480;9.258;2023-02-15T11:38:10;9.50;80.90
41756;DHT22;27435;48.480;9.258;2023-02-15T11:40:47;9.70;80.70
41756;DHT22;27435;48.480;9.258;2023-02-15T11:43:21;9.90;80.70
41756;DHT22;27435;48.480;9.258;2023-02-15T11:45:49;10.00;79.70
41756;DHT22;27435;48.480;9.258;2023-02-15T11:48:15;9.90;80.50
41756;DHT22;27435;48.480;9.258;2023-02-15T11:50:44;10.00;80.30
41756;DHT22;27435;48.480;9.258;2023-02-15T11:53:16;10.10;79.10
41756;DHT22;27435;48.480;9.258;2023-02-15T11:55:44;10.20;79.30
41756;DHT22;27435;48.480;9.258;2023-02-15T12:01:32;10.50;77.10
41756;DHT22;27435;48.480;9.258;2023-02-15T12:04:09;10.60;77.50
41756;DHT22;27435;48.480;9.258;2023-02-15T12:06:41;10.70;76.70
41756;DHT22;27435;48.480;9.258;2023-02-15T12:12:28;11.00;75.60
41756;DHT22;27435;48.480;9.258;2023-02-15T12:14:56;11.20;72.70
41756;DHT22;27435;48.480;9.258;2023-02-15T12:17:24;11.40;73.00
41756;DHT22;27435;48.480;9.258;2023-02-15T12:19:54;11.50;72.00
41756;DHT22;27435;48.480;9.258;2023-02-15T12:22:29;11.80;69.40
41756;DHT22;27435;48.480;9.258;2023-02-15T12:24:58;11.80;67.30
41756;DHT22;27435;48.480;9.258;2023-02-15T12:27:27;11.80;66.70
41756;DHT22;27435;48.480;9.258;2023-02-15T12:29:58;12.10;67.50
41756;DHT22;27435;48.480;9.258;2023-02-15T12:32:29;12.20;67.30
41756;DHT22;27435;48.480;9.258;2023-02-15T12:35:02;12.30;65.60
41756;DHT22;27435;48.480;9.258;2023-02-15T12:37:33;12.40;65.60
41756;DHT22;27435;48.480;9.258;2023-02-15T12:40:02;12.60;65.40
41756;DHT22;27435;48.480;9.258;2023-02-15T12:42:41;12.80;65.20
41756;DHT22;27435;48.480;9.258;2023-02-15T12:45:39;12.80;64.40
41756;DHT22;27435;48.480;9.258;2023-02-15T12:48:18;12.90;63.10
41756;DHT22;27435;48.480;9.258;2023-02-15T12:50:50;13.00;63.90
41756;DHT22;27435;48.480;9.258;2023-02-15T12:55:54;13.10;62.00
41756;DHT22;27435;48.480;9.258;2023-02-15T12:58:23;13.10;60.00
41756;DHT22;27435;48.480;9.258;2023-02-15T13:01:19;13.30;60.80
41756;DHT22;27435;48.480;9.258;2023-02-15T13:06:18;13.60;55.30
41756;DHT22;27435;48.480;9.258;2023-02-15T13:08:50;13.80;55.40
41756;DHT22;27435;48.480;9.258;2023-02-15T13:11:29;13.90;54.30
41756;DHT22;27435;48.480;9.258;2023-02-15T13:14:16;14.00;55.80
41756;DHT22;27435;48.480;9.258;2023-02-15T13:16:44;14.10;56.60
41756;DHT22;27435;48.480;9.258;2023-02-15T13:19:21;14.20;57.00
41756;DHT22;27435;48.480;9.258;2023-02-15T13:21:51;14.30;57.20
41756;DHT22;27435;48.480;9.258;2023-02-15T13:24:27;14.40;56.50
41756;DHT22;27435;48.480;9.258;2023-02-15T13:26:56;14.50;55.60
41756;DHT22;27435;48.480;9.258;2023-02-15T13:29:28;14.40;52.90
41756;DHT22;27435;48.480;9.258;2023-02-15T13:31:56;14.50;52.70
41756;DHT22;27435;48.480;9.258;2023-02-15T13:34:28;14.50;53.90
41756;DHT22;27435;48.480;9.258;2023-02-15T13:37:13;14.70;53.00
41756;DHT22;27435;48.480;9.258;2023-02-15T13:39:51;14.80;53.00
41756;DHT22;27435;48.480;9.258;2023-02-15T13:42:20;14.80;52.30
41756;DHT22;27435;48.480;9.258;2023-02-15T13:48:10;14.90;54.40
41756;DHT22;27435;48.480;9.258;2023-02-15T14:01:45;14.80;55.50
41756;DHT22;27435;48.480;9.258;2023-02-15T14:04:31;14.70;53.90
41756;DHT22;27435;48.480;9.258;2023-02-15T14:07:33;14.80;55.20
41756;DHT22;27435;48.480;9.258;2023-02-15T14:12:54;14.60;55.10
41756;DHT22;27435;48.480;9.258;2023-02-15T14:24:03;15.00;53.50
41756;DHT22;27435;48.480;9.258;2023-02-15T14:26:15;15.00;52.40
41756;DHT22;27435;48.480;9.258;2023-02-15T14:31:14;15.10;51.90
41756;DHT22;27435;48.480;9.258;2023-02-15T14:33:47;15.00;50.90
41756;DHT22;27435;48.480;9.258;2023-02-15T14:36:18;15.00;51.40
41756;DHT22;27435;48.480;9.258;2023-02-15T14:42:13;15.30;48.90
41756;DHT22;27435;48.480;9.258;2023-02-15T14:44:46;15.50;48.90
41756;DHT22;27435;48.480;9.258;2023-02-15T14:47:26;15.30;50.10
41756;DHT22;27435;48.480;9.258;2023-02-15T14:49:55;15.20;50.20
41756;DHT22;27435;48.480;9.258;2023-02-15T14:52:21;15.20;49.20
41756;DHT22;27435;48.480;9.258;2023-02-15T14:59:56;15.40;52.90
41756;DHT22;27435;48.480;9.258;2023-02-15T15:02:43;15.40;54.70
41756;DHT22;27435;48.480;9.258;2023-02-15T15:05:20;15.00;55.80
41756;DHT22;27435;48.480;9.258;2023-02-15T15:07:54;14.90;56.00
41756;DHT22;27435;48.480;9.258;2023-02-15T15:12:48;14.70;54.50
41756;DHT22;27435;48.480;9.258;2023-02-15T15:17:56;14.70;54.80
41756;DHT22;27435;48.480;9.258;2023-02-15T15:20:50;14.70;54.00
41756;DHT22;27435;48.480;9.258;2023-02-15T15:42:31;14.90;52.50
41756;DHT22;27435;48.480;9.258;2023-02-15T15:47:53;14.80;52.20
41756;DHT22;27435;48.480;9.258;2023-02-15T15:50:20;15.00;51.50
41756;DHT22;27435;48.480;9.258;2023-02-15T15:52:52;15.00;51.10
41756;DHT22;27435;48.480;9.258;2023-02-15T15:55:27;14.90;52.40
41756;DHT22;27435;48.480;9.258;2023-02-15T15:57:54;14.70;54.30
41756;DHT22;27435;48.480;9.258;2023-02-15T16:00:37;14.80;54.50
41756;DHT22;27435;48.480;9.258;2023-02-15T16:03:04;15.00;50.30
41756;DHT22;27435;48.480;9.258;2023-02-15T16:05:39;14.90;49.30
41756;DHT22;27435;48.480;9.258;2023-02-15T16:08:05;15.00;50.20
41756;DHT22;27435;48.480;9.258;2023-02-15T16:10:32;14.50;49.40
41756;DHT22;27435;48.480;9.258;2023-02-15T16:12:59;14.00;52.00
41756;DHT22;27435;48.480;9.258;2023-02-15T16:15:45;13.60;54.70
41756;DHT22;27435;48.480;9.258;2023-02-15T16:18:16;13.30;56.00
41756;DHT22;27435;48.480;9.258;2023-02-15T16:20:51;13.10;57.20
41756;DHT22;27435;48.480;9.258;2023-02-15T16:26:28;12.10;58.30
41756;DHT22;27435;48.480;9.258;2023-02-15T16:28:58;11.50;61.00
41756;DHT22;27435;48.480;9.258;2023-02-15T16:31:24;11.10;61.80
41756;DHT22;27435;48.480;9.258;2023-02-15T16:33:53;10.90;61.60
41756;DHT22;27435;48.480;9.258;2023-02-15T16:36:27;10.70;61.80
41756;DHT22;27435;48.480;9.258;2023-02-15T16:39:09;10.50;61.90
41756;DHT22;27435;48.480;9.258;2023-02-15T16:41:35;10.40;62.90
41756;DHT22;27435;48.480;9.258;2023-02-15T16:44:11;10.30;63.00
41756;DHT22;27435;48.480;9.258;2023-02-15T16:46:41;10.20;63.40
41756;DHT22;27435;48.480;9.258;2023-02-15T16:49:21;9.90;63.70
41756;DHT22;27435;48.480;9.258;2023-02-15T16:51:56;9.50;65.20
41756;DHT22;27435;48.480;9.258;2023-02-15T16:54:24;9.30;67.00
41756;DHT22;27435;48.480;9.258;2023-02-15T16:56:51;9.00;68.40
41756;DHT22;27435;48.480;9.258;2023-02-15T17:01:56;8.70;69.10
41756;DHT22;27435;48.480;9.258;2023-02-15T17:04:32;8.60;69.20
41756;DHT22;27435;48.480;9.258;2023-02-15T17:07:04;8.50;69.70
41756;DHT22;27435;48.480;9.258;2023-02-15T17:09:32;8.30;70.30
41756;DHT22;27435;48.480;9.258;2023-02-15T17:11:57;8.20;70.90
41756;DHT22;27435;48.480;9.258;2023-02-15T17:14:31;8.20;72.20
41756;DHT22;27435;48.480;9.258;2023-02-15T17:17:15;8.00;72.40
41756;DHT22;27435;48.480;9.258;2023-02-15T17:19:47;7.60;72.80
41756;DHT22;27435;48.480;9.258;2023-02-15T17:22:20;7.40;73.90
41756;DHT22;27435;48.480;9.258;2023-02-15T17:24:47;7.20;74.80
41756;DHT22;27435;48.480;9.258;2023-02-15T17:27:24;7.10;75.20
41756;DHT22;27435;48.480;9.258;2023-02-15T17:29:50;6.80;77.10
41756;DHT22;27435;48.480;9.258;2023-02-15T17:32:25;6.50;78.40
41756;DHT22;27435;48.480;9.258;2023-02-15T17:40:07;6.40;79.50
41756;DHT22;27435;48.480;9.258;2023-02-15T17:42:33;6.10;79.80
41756;DHT22;27435;48.480;9.258;2023-02-15T17:44:58;6.00;80.60
41756;DHT22;27435;48.480;9.258;2023-02-15T17:47:24;6.00;81.20
41756;DHT22;27435;48.480;9.258;2023-02-15T17:49:52;6.00;81.30
41756;DHT22;27435;48.480;9.258;2023-02-15T17:52:18;6.00;79.80
41756;DHT22;27435;48.480;9.258;2023-02-15T17:54:44;6.00;79.50
41756;DHT22;27435;48.480;9.258;2023-02-15T17:57:29;6.10;79.40
41756;DHT22;27435;48.480;9.258;2023-02-15T17:59:55;5.90;78.60
41756;DHT22;27435;48.480;9.258;2023-02-15T18:02:40;5.70;79.50
41756;DHT22;27435;48.480;9.258;2023-02-15T18:05:25;5.50;80.20
41756;DHT22;27435;48.480;9.258;2023-02-15T18:08:14;5.50;80.10
41756;DHT22;27435;48.480;9.258;2023-02-15T18:11:00;5.40;80.40
41756;DHT22;27435;48.480;9.258;2023-02-15T18:13:44;5.50;80.50
41756;DHT22;27435;48.480;9.258;2023-02-15T18:16:14;5.50;81.10
41756;DHT22;27435;48.480;9.258;2023-02-15T18:18:42;5.40;81.90
41756;DHT22;27435;48.480;9.258;2023-02-15T18:21:08;5.30;82.30
41756;DHT22;27435;48.480;9.258;2023-02-15T18:23:35;5.20;83.40
41756;DHT22;27435;48.480;9.258;2023-02-15T18:26:01;5.10;84.40
41756;DHT22;27435;48.480;9.258;2023-02-15T18:28:26;5.20;85.50
41756;DHT22;27435;48.480;9.258;2023-02-15T18:30:52;5.40;85.70
41756;DHT22;27435;48.480;9.258;2023-02-15T18:33:35;5.50;85.30
41756;DHT22;27435;48.480;9.258;2023-02-15T18:36:03;5.60;84.30
41756;DHT22;27435;48.480;9.258;2023-02-15T18:38:30;5.50;82.70
41756;DHT22;27435;48.480;9.258;2023-02-15T18:40:55;5.70;82.90
41756;DHT22;27435;48.480;9.258;2023-02-15T18:43:21;5.50;81.70
41756;DHT22;27435;48.480;9.258;2023-02-15T18:45:47;5.50;81.60
41756;DHT22;27435;48.480;9.258;2023-02-15T18:48:12;5.50;82.00
41756;DHT22;27435;48.480;9.258;2023-02-15T18:50:40;5.50;82.10
41756;DHT22;27435;48.480;9.258;2023-02-15T18:53:10;5.40;86.00
41756;DHT22;27435;48.480;9.258;2023-02-15T18:55:39;5.50;89.40
41756;DHT22;27435;48.480;9.258;2023-02-15T18:58:05;5.60;90.60
41756;DHT22;27435;48.480;9.258;2023-02-15T19:00:32;5.80;89.80
41756;DHT22;27435;48.480;9.258;2023-02-15T19:02:59;5.80;89.50
41756;DHT22;27435;48.480;9.258;2023-02-15T19:05:27;5.70;89.90
41756;DHT22;27435;48.480;9.258;2023-02-15T19:07:54;5.50;91.20
41756;DHT22;27435;48.480;9.258;2023-02-15T19:10:24;5.50;92.50
41756;DHT22;27435;48.480;9.258;2023-02-15T19:12:51;5.40;93.10
41756;DHT22;27435;48.480;9.258;2023-02-15T19:15:22;5.40;93.60
41756;DHT22;27435;48.480;9.258;2023-02-15T19:17:49;5.50;93.40
41756;DHT22;27435;48.480;9.258;2023-02-15T19:20:19;5.40;95.00